sensor_id;sensor_type;location;lat;lon;timestamp;temperature;humidity
17992;DHT22;9121;50.926;5.340;2023-10-13T00:01:53;18.60;99.90
17992;DHT22;9121;50.926;5.340;2023-10-13T00:04:21;18.70;99.90
17992;DHT22;9121;50.926;5.340;2023-10-13T00:06:50;18.70;99.90
17992;DHT22;9121;50.926;5.340;2023-10-13T00:09:17;18.70;99.90
17992;DHT22;9121;50.926;5.340;2023-10-13T00:11:49;18.70;99.90
17992;DHT22;9121;50.926;5.340;2023-10-13T00:14:18;18.70;99.90
17992;DHT22;9121;50.926;5.340;2023-10-13T00:16:48;18.70;99.90
17992;DHT22;9121;50.926;5.340;2023-10-13T00:19:29;18.70;99.90
17992;DHT22;9121;50.926;5.340;2023-10-13T00:22:04;18.70;99.90
17992;DHT22;9121;50.926;5.340;2023-10-13T00:24:35;18.70;99.90
17992;DHT22;9121;50.926;5.340;2023-10-13T00:27:09;18.70;99.90
17992;DHT22;9121;50.926;5.340;2023-10-13T00:29:50;18.70;99.90
17992;DHT22;9121;50.926;5.340;2023-10-13T00:32:31;18.70;99.90
17992;DHT22;9121;50.926;5.340;2023-10-13T00:35:03;18.70;99.90
17992;DHT22;9121;50.926;5.340;2023-10-13T00:37:31;18.70;99.90
17992;DHT22;9121;50.926;5.340;2023-10-13T00:40:07;18.70;99.90
17992;DHT22;9121;50.926;5.340;2023-10-13T00:42:52;18.70;99.90
17992;DHT22;9121;50.926;5.340;2023-10-13T00:45:19;18.70;99.90
17992;DHT22;9121;50.926;5.340;2023-10-13T00:47:47;18.70;99.90
17992;DHT22;9121;50.926;5.340;2023-10-13T00:50:23;18.60;99.90
17992;DHT22;9121;50.926;5.340;2023-10-13T00:52:50;18.60;99.90
17992;DHT22;9121;50.926;5.340;2023-10-13T00:55:18;18.60;99.90
17992;DHT22;9121;50.926;5.340;2023-10-13T00:57:50;18.60;99.90
17992;DHT22;9121;50.926;5.340;2023-10-13T01:00:19;18.60;99.90
17992;DHT22;9121;50.926;5.340;2023-10-13T01:02:53;18.60;99.90
17992;DHT22;9121;50.926;5.340;2023-10-13T01:05:23;18.70;99.90
17992;DHT22;9121;50.926;5.340;2023-10-13T01:07:49;18.70;99.90
17992;DHT22;9121;50.926;5.340;2023-10-13T01:10:19;18.60;99.90
17992;DHT22;9121;50.926;5.340;2023-10-13T01:12:46;18.60;99.90
17992;DHT22;9121;50.926;5.340;2023-10-13T01:15:13;18.60;99.90
17992;DHT22;9121;50.926;5.340;2023-10-13T01:17:43;18.60;99.90
17992;DHT22;9121;50.926;5.340;2023-10-13T01:20:12;18.60;99.90
17992;DHT22;9121;50.926;5.340;2023-10-13T01:22:45;18.60;99.90
17992;DHT22;9121;50.926;5.340;2023-10-13T01:25:22;18.60;99.90
17992;DHT22;9121;50.926;5.340;2023-10-13T01:27:51;18.60;99.90
17992;DHT22;9121;50.926;5.340;2023-10-13T01:30:18;18.60;99.90
17992;DHT22;9121;50.926;5.340;2023-10-13T01:32:48;18.60;99.90
17992;DHT22;9121;50.926;5.340;2023-10-13T01:35:16;18.60;99.90
17992;DHT22;9121;50.926;5.340;2023-10-13T01:37:44;18.60;99.90
17992;DHT22;9121;50.926;5.340;2023-10-13T01:40:11;18.60;99.90
17992;DHT22;9121;50.926;5.340;2023-10-13T01:42:39;18.60;99.90
17992;DHT22;9121;50.926;5.340;2023-10-13T01:45:07;18.60;99.90
17992;DHT22;9121;50.926;5.340;2023-10-13T01:47:33;18.60;99.90
17992;DHT22;9121;50.926;5.340;2023-10-13T01:50:00;18.60;99.90
17992;DHT22;9121;50.926;5.340;2023-10-13T01:52:38;18.60;99.90
17992;DHT22;9121;50.926;5.340;2023-10-13T01:55:08;18.60;99.90
17992;DHT22;9121;50.926;5.340;2023-10-13T01:57:38;18.60;99.90
17992;DHT22;9121;50.926;5.340;2023-10-13T02:00:07;18.60;99.90
17992;DHT22;9121;50.926;5.340;2023-10-13T02:02:44;18.60;99.90
17992;DHT22;9121;50.926;5.340;2023-10-13T02:05:15;18.70;99.90
17992;DHT22;9121;50.926;5.340;2023-10-13T02:07:42;18.60;99.90
17992;DHT22;9121;50.926;5.340;2023-10-13T02:10:11;18.60;99.90
17992;DHT22;9121;50.926;5.340;2023-10-13T02:12:39;18.60;99.90
17992;DHT22;9121;50.926;5.340;2023-10-13T02:15:10;18.60;99.90
17992;DHT22;9121;50.926;5.340;2023-10-13T02:17:38;18.60;99.90
17992;DHT22;9121;50.926;5.340;2023-10-13T02:20:10;18.60;99.90
17992;DHT22;9121;50.926;5.340;2023-10-13T02:22:40;18.60;99.90
17992;DHT22;9121;50.926;5.340;2023-10-13T02:25:15;18.60;99.90
17992;DHT22;9121;50.926;5.340;2023-10-13T02:27:44;18.70;99.90
17992;DHT22;9121;50.926;5.340;2023-10-13T02:30:23;18.70;99.90
17992;DHT22;9121;50.926;5.340;2023-10-13T02:32:51;18.70;99.90
17992;DHT22;9121;50.926;5.340;2023-10-13T02:35:19;18.70;99.90
17992;DHT22;9121;50.926;5.340;2023-10-13T02:37:55;18.70;99.90
17992;DHT22;9121;50.926;5.340;2023-10-13T02:40:24;18.70;99.90
17992;DHT22;9121;50.926;5.340;2023-10-13T02:42:52;18.70;99.90
17992;DHT22;9121;50.926;5.340;2023-10-13T02:45:19;18.70;99.90
17992;DHT22;9121;50.926;5.340;2023-10-13T02:47:51;18.70;99.90
17992;DHT22;9121;50.926;5.340;2023-10-13T02:50:39;18.70;99.90
17992;DHT22;9121;50.926;5.340;2023-10-13T02:53:09;18.70;99.90
17992;DHT22;9121;50.926;5.340;2023-10-13T02:55:49;18.80;99.90
17992;DHT22;9121;50.926;5.340;2023-10-13T02:58:17;18.70;99.90
17992;DHT22;9121;50.926;5.340;2023-10-13T03:00:44;18.70;99.90
17992;DHT22;9121;50.926;5.340;2023-10-13T03:03:12;18.70;99.90
17992;DHT22;9121;50.926;5.340;2023-10-13T03:05:40;18.70;99.90
17992;DHT22;9121;50.926;5.340;2023-10-13T03:08:08;18.70;99.90
17992;DHT22;9121;50.926;5.340;2023-10-13T03:10:37;18.70;99.90
17992;DHT22;9121;50.926;5.340;2023-10-13T03:13:11;18.80;99.90
17992;DHT22;9121;50.926;5.340;2023-10-13T03:15:39;18.80;99.90
17992;DHT22;9121;50.926;5.340;2023-10-13T03:18:05;18.80;99.90
17992;DHT22;9121;50.926;5.340;2023-10-13T03:20:32;18.80;99.90
17992;DHT22;9121;50.926;5.340;2023-10-13T03:22:58;18.70;99.90
17992;DHT22;9121;50.926;5.340;2023-10-13T03:25:25;18.70;99.90
17992;DHT22;9121;50.926;5.340;2023-10-13T03:27:55;18.70;99.90
17992;DHT22;9121;50.926;5.340;2023-10-13T03:30:31;18.70;99.90
17992;DHT22;9121;50.926;5.340;2023-10-13T03:33:10;18.70;99.90
17992;DHT22;9121;50.926;5.340;2023-10-13T03:35:41;18.70;99.90
17992;DHT22;9121;50.926;5.340;2023-10-13T03:38:10;18.60;99.90
17992;DHT22;9121;50.926;5.340;2023-10-13T03:40:44;18.60;99.90
17992;DHT22;9121;50.926;5.340;2023-10-13T03:43:32;18.60;99.90
17992;DHT22;9121;50.926;5.340;2023-10-13T03:46:10;18.70;99.90
17992;DHT22;9121;50.926;5.340;2023-10-13T03:48:39;18.70;99.90
17992;DHT22;9121;50.926;5.340;2023-10-13T03:51:17;18.70;99.90
17992;DHT22;9121;50.926;5.340;2023-10-13T03:53:45;18.70;99.90
17992;DHT22;9121;50.926;5.340;2023-10-13T03:56:19;18.70;99.90
17992;DHT22;9121;50.926;5.340;2023-10-13T03:58:54;18.70;99.90
17992;DHT22;9121;50.926;5.340;2023-10-13T04:01:24;18.70;99.90
17992;DHT22;9121;50.926;5.340;2023-10-13T04:03:59;18.70;99.90
17992;DHT22;9121;50.926;5.340;2023-10-13T04:06:34;18.70;99.90
17992;DHT22;9121;50.926;5.340;2023-10-13T04:09:18;18.70;99.90
17992;DHT22;9121;50.926;5.340;2023-10-13T04:12:06;18.70;99.90
17992;DHT22;9121;50.926;5.340;2023-10-13T04:15:07;18.70;99.90
17992;DHT22;9121;50.926;5.340;2023-10-13T04:17:47;18.80;99.90
17992;DHT22;9121;50.926;5.340;2023-10-13T04:20:17;18.70;99.90
17992;DHT22;9121;50.926;5.340;2023-10-13T04:22:58;18.70;99.90
17992;DHT22;9121;50.926;5.340;2023-10-13T04:25:45;18.70;99.90
17992;DHT22;9121;50.926;5.340;2023-10-13T04:28:33;18.60;99.90
17992;DHT22;9121;50.926;5.340;2023-10-13T04:31:03;18.60;99.90
17992;DHT22;9121;50.926;5.340;2023-10-13T04:33:40;18.60;99.90
17992;DHT22;9121;50.926;5.340;2023-10-13T04:36:22;18.60;99.90
17992;DHT22;9121;50.926;5.340;2023-10-13T04:39:02;18.50;99.90
17992;DHT22;9121;50.926;5.340;2023-10-13T04:41:37;18.50;99.90
17992;DHT22;9121;50.926;5.340;2023-10-13T04:44:05;18.50;99.90
17992;DHT22;9121;50.926;5.340;2023-10-13T04:46:53;18.50;99.90
17992;DHT22;9121;50.926;5.340;2023-10-13T04:49:38;18.50;99.90
17992;DHT22;9121;50.926;5.340;2023-10-13T04:52:19;18.50;99.90
17992;DHT22;9121;50.926;5.340;2023-10-13T04:55:11;18.50;99.90
17992;DHT22;9121;50.926;5.340;2023-10-13T04:57:59;18.50;99.90
17992;DHT22;9121;50.926;5.340;2023-10-13T05:00:37;18.50;99.90
17992;DHT22;9121;50.926;5.340;2023-10-13T05:03:21;18.50;99.90
17992;DHT22;9121;50.926;5.340;2023-10-13T05:06:18;18.50;99.90
17992;DHT22;9121;50.926;5.340;2023-10-13T05:09:04;18.60;99.90
17992;DHT22;9121;50.926;5.340;2023-10-13T05:11:48;18.60;99.90
17992;DHT22;9121;50.926;5.340;2023-10-13T05:14:32;18.60;99.90
17992;DHT22;9121;50.926;5.340;2023-10-13T05:17:17;18.60;99.90
17992;DHT22;9121;50.926;5.340;2023-10-13T05:20:01;18.70;99.90
17992;DHT22;9121;50.926;5.340;2023-10-13T05:22:46;18.70;99.90
17992;DHT22;9121;50.926;5.340;2023-10-13T05:25:35;18.70;99.90
17992;DHT22;9121;50.926;5.340;2023-10-13T05:28:19;18.70;99.90
17992;DHT22;9121;50.926;5.340;2023-10-13T05:31:03;18.70;99.90
17992;DHT22;9121;50.926;5.340;2023-10-13T05:33:47;18.70;99.90
17992;DHT22;9121;50.926;5.340;2023-10-13T05:36:33;18.70;99.90
17992;DHT22;9121;50.926;5.340;2023-10-13T05:39:17;18.70;99.90
17992;DHT22;9121;50.926;5.340;2023-10-13T05:42:03;18.70;99.90
17992;DHT22;9121;50.926;5.340;2023-10-13T05:44:47;18.70;99.90
17992;DHT22;9121;50.926;5.340;2023-10-13T05:47:22;18.70;99.90
17992;DHT22;9121;50.926;5.340;2023-10-13T05:50:12;18.70;99.90
17992;DHT22;9121;50.926;5.340;2023-10-13T05:52:54;18.70;99.90
17992;DHT22;9121;50.926;5.340;2023-10-13T05:55:39;18.70;99.90
17992;DHT22;9121;50.926;5.340;2023-10-13T05:58:25;18.70;99.90
17992;DHT22;9121;50.926;5.340;2023-10-13T06:01:12;18.70;99.90
17992;DHT22;9121;50.926;5.340;2023-10-13T06:03:56;18.70;99.90
17992;DHT22;9121;50.926;5.340;2023-10-13T06:06:52;18.70;99.90
17992;DHT22;9121;50.926;5.340;2023-10-13T06:09:36;18.80;99.90
17992;DHT22;9121;50.926;5.340;2023-10-13T06:12:21;18.80;99.90
17992;DHT22;9121;50.926;5.340;2023-10-13T06:15:07;18.80;99.90
17992;DHT22;9121;50.926;5.340;2023-10-13T06:17:51;18.80;99.90
17992;DHT22;9121;50.926;5.340;2023-10-13T06:20:39;18.80;99.90
17992;DHT22;9121;50.926;5.340;2023-10-13T06:23:23;18.80;99.90
17992;DHT22;9121;50.926;5.340;2023-10-13T06:26:10;18.90;99.90
17992;DHT22;9121;50.926;5.340;2023-10-13T06:28:54;18.90;99.90
17992;DHT22;9121;50.926;5.340;2023-10-13T06:31:22;18.90;99.90
17992;DHT22;9121;50.926;5.340;2023-10-13T06:33:51;18.90;99.90
17992;DHT22;9121;50.926;5.340;2023-10-13T06:36:21;18.90;99.90
17992;DHT22;9121;50.926;5.340;2023-10-13T06:38:48;18.90;99.90
17992;DHT22;9121;50.926;5.340;2023-10-13T06:41:20;18.90;99.90
17992;DHT22;9121;50.926;5.340;2023-10-13T06:43:56;18.90;99.90
17992;DHT22;9121;50.926;5.340;2023-10-13T06:46:30;19.00;99.90
17992;DHT22;9121;50.926;5.340;2023-10-13T06:48:59;19.00;99.90
17992;DHT22;9121;50.926;5.340;2023-10-13T06:51:28;19.00;99.90
17992;DHT22;9121;50.926;5.340;2023-10-13T06:54:04;19.00;99.90
17992;DHT22;9121;50.926;5.340;2023-10-13T06:56:36;19.00;99.90
17992;DHT22;9121;50.926;5.340;2023-10-13T06:59:05;19.10;99.90
17992;DHT22;9121;50.926;5.340;2023-10-13T07:01:34;19.10;99.90
17992;DHT22;9121;50.926;5.340;2023-10-13T07:04:07;19.10;99.90
17992;DHT22;9121;50.926;5.340;2023-10-13T07:06:40;19.20;99.90
17992;DHT22;9121;50.926;5.340;2023-10-13T07:09:10;19.20;99.90
17992;DHT22;9121;50.926;5.340;2023-10-13T07:11:54;19.20;99.90
17992;DHT22;9121;50.926;5.340;2023-10-13T07:14:26;19.20;99.90
17992;DHT22;9121;50.926;5.340;2023-10-13T07:17:00;19.30;99.90
17992;DHT22;9121;50.926;5.340;2023-10-13T07:19:28;19.30;99.90
17992;DHT22;9121;50.926;5.340;2023-10-13T07:21:56;19.30;99.90
17992;DHT22;9121;50.926;5.340;2023-10-13T07:24:25;19.40;99.90
17992;DHT22;9121;50.926;5.340;2023-10-13T07:26:53;19.40;99.90
17992;DHT22;9121;50.926;5.340;2023-10-13T07:29:29;19.50;99.90
17992;DHT22;9121;50.926;5.340;2023-10-13T07:31:57;19.50;99.90
17992;DHT22;9121;50.926;5.340;2023-10-13T07:34:24;19.50;99.90
17992;DHT22;9121;50.926;5.340;2023-10-13T07:36:52;19.60;99.90
17992;DHT22;9121;50.926;5.340;2023-10-13T07:39:20;19.60;99.90
17992;DHT22;9121;50.926;5.340;2023-10-13T07:41:49;19.80;99.90
17992;DHT22;9121;50.926;5.340;2023-10-13T07:44:21;19.80;99.90
17992;DHT22;9121;50.926;5.340;2023-10-13T07:46:51;19.90;99.90
17992;DHT22;9121;50.926;5.340;2023-10-13T07:49:29;19.90;99.90
17992;DHT22;9121;50.926;5.340;2023-10-13T07:52:02;20.00;99.90
17992;DHT22;9121;50.926;5.340;2023-10-13T07:54:42;20.00;99.90
17992;DHT22;9121;50.926;5.340;2023-10-13T07:57:13;20.00;99.90
17992;DHT22;9121;50.926;5.340;2023-10-13T07:59:41;20.10;99.90
17992;DHT22;9121;50.926;5.340;2023-10-13T08:02:14;20.10;99.90
17992;DHT22;9121;50.926;5.340;2023-10-13T08:05:09;20.30;99.90
17992;DHT22;9121;50.926;5.340;2023-10-13T08:07:40;20.40;99.90
17992;DHT22;9121;50.926;5.340;2023-10-13T08:10:09;20.50;99.90
17992;DHT22;9121;50.926;5.340;2023-10-13T08:12:37;20.70;99.90
17992;DHT22;9121;50.926;5.340;2023-10-13T08:15:08;20.80;99.90
17992;DHT22;9121;50.926;5.340;2023-10-13T08:17:46;20.90;99.90
17992;DHT22;9121;50.926;5.340;2023-10-13T08:20:19;20.90;99.90
17992;DHT22;9121;50.926;5.340;2023-10-13T08:22:47;20.90;99.90
17992;DHT22;9121;50.926;5.340;2023-10-13T08:25:15;21.00;99.90
17992;DHT22;9121;50.926;5.340;2023-10-13T08:27:46;21.00;99.90
17992;DHT22;9121;50.926;5.340;2023-10-13T08:30:31;20.90;99.90
17992;DHT22;9121;50.926;5.340;2023-10-13T08:33:08;21.00;99.90
17992;DHT22;9121;50.926;5.340;2023-10-13T08:35:44;21.10;99.90
17992;DHT22;9121;50.926;5.340;2023-10-13T08:38:31;21.20;99.90
17992;DHT22;9121;50.926;5.340;2023-10-13T08:41:16;21.30;99.90
17992;DHT22;9121;50.926;5.340;2023-10-13T08:43:58;21.40;99.90
17992;DHT22;9121;50.926;5.340;2023-10-13T08:46:30;21.50;99.90
17992;DHT22;9121;50.926;5.340;2023-10-13T08:49:18;21.50;99.90
17992;DHT22;9121;50.926;5.340;2023-10-13T08:51:50;21.50;99.90
17992;DHT22;9121;50.926;5.340;2023-10-13T08:54:32;21.50;99.90
17992;DHT22;9121;50.926;5.340;2023-10-13T08:57:00;21.50;99.90
17992;DHT22;9121;50.926;5.340;2023-10-13T08:59:45;21.50;99.90
17992;DHT22;9121;50.926;5.340;2023-10-13T09:02:21;21.60;99.90
17992;DHT22;9121;50.926;5.340;2023-10-13T09:05:09;21.60;99.90
17992;DHT22;9121;50.926;5.340;2023-10-13T09:07:57;21.70;99.90
17992;DHT22;9121;50.926;5.340;2023-10-13T09:10:35;21.60;99.90
17992;DHT22;9121;50.926;5.340;2023-10-13T09:13:10;21.70;99.90
17992;DHT22;9121;50.926;5.340;2023-10-13T09:15:44;21.70;99.90
17992;DHT22;9121;50.926;5.340;2023-10-13T09:18:27;21.70;99.90
17992;DHT22;9121;50.926;5.340;2023-10-13T09:21:12;21.80;99.90
17992;DHT22;9121;50.926;5.340;2023-10-13T09:23:58;21.80;99.90
17992;DHT22;9121;50.926;5.340;2023-10-13T09:26:47;21.90;99.90
17992;DHT22;9121;50.926;5.340;2023-10-13T09:29:16;22.10;99.90
17992;DHT22;9121;50.926;5.340;2023-10-13T09:31:45;22.10;99.90
17992;DHT22;9121;50.926;5.340;2023-10-13T09:34:19;22.10;99.90
17992;DHT22;9121;50.926;5.340;2023-10-13T09:36:47;22.10;99.90
17992;DHT22;9121;50.926;5.340;2023-10-13T09:39:16;22.10;99.90
17992;DHT22;9121;50.926;5.340;2023-10-13T09:41:59;22.10;99.90
17992;DHT22;9121;50.926;5.340;2023-10-13T09:44:26;22.10;99.90
17992;DHT22;9121;50.926;5.340;2023-10-13T09:47:00;22.10;99.90
17992;DHT22;9121;50.926;5.340;2023-10-13T09:49:39;22.20;99.90
17992;DHT22;9121;50.926;5.340;2023-10-13T09:52:16;22.40;99.90
17992;DHT22;9121;50.926;5.340;2023-10-13T09:55:00;22.40;99.90
17992;DHT22;9121;50.926;5.340;2023-10-13T09:57:32;22.40;99.90
17992;DHT22;9121;50.926;5.340;2023-10-13T10:00:11;22.40;99.90
17992;DHT22;9121;50.926;5.340;2023-10-13T10:03:07;22.40;99.90
17992;DHT22;9121;50.926;5.340;2023-10-13T10:05:55;22.40;99.90
17992;DHT22;9121;50.926;5.340;2023-10-13T10:08:29;22.40;99.90
17992;DHT22;9121;50.926;5.340;2023-10-13T10:11:19;22.40;99.90
17992;DHT22;9121;50.926;5.340;2023-10-13T10:13:53;22.40;99.90
17992;DHT22;9121;50.926;5.340;2023-10-13T10:16:35;22.40;99.90
17992;DHT22;9121;50.926;5.340;2023-10-13T10:19:08;22.40;99.90
17992;DHT22;9121;50.926;5.340;2023-10-13T10:21:36;22.40;99.90
17992;DHT22;9121;50.926;5.340;2023-10-13T10:24:14;22.40;99.90
17992;DHT22;9121;50.926;5.340;2023-10-13T10:26:52;22.40;99.90
17992;DHT22;9121;50.926;5.340;2023-10-13T10:29:19;22.40;99.90
17992;DHT22;9121;50.926;5.340;2023-10-13T10:31:46;22.50;99.90
17992;DHT22;9121;50.926;5.340;2023-10-13T10:34:15;22.60;99.90
17992;DHT22;9121;50.926;5.340;2023-10-13T10:36:47;22.60;99.90
17992;DHT22;9121;50.926;5.340;2023-10-13T10:39:14;22.70;99.90
17992;DHT22;9121;50.926;5.340;2023-10-13T10:41:43;22.70;99.90
17992;DHT22;9121;50.926;5.340;2023-10-13T10:44:18;22.70;99.90
17992;DHT22;9121;50.926;5.340;2023-10-13T10:46:52;22.80;99.90
17992;DHT22;9121;50.926;5.340;2023-10-13T10:49:25;22.90;99.90
17992;DHT22;9121;50.926;5.340;2023-10-13T10:51:59;23.00;99.90
17992;DHT22;9121;50.926;5.340;2023-10-13T10:54:30;23.00;99.90
17992;DHT22;9121;50.926;5.340;2023-10-13T10:56:58;23.00;99.90
17992;DHT22;9121;50.926;5.340;2023-10-13T10:59:37;23.00;99.90
17992;DHT22;9121;50.926;5.340;2023-10-13T11:02:04;23.10;99.90
17992;DHT22;9121;50.926;5.340;2023-10-13T11:04:33;23.10;99.90
17992;DHT22;9121;50.926;5.340;2023-10-13T11:07:01;23.10;99.90
17992;DHT22;9121;50.926;5.340;2023-10-13T11:09:30;23.10;99.90
17992;DHT22;9121;50.926;5.340;2023-10-13T11:12:13;23.20;99.90
17992;DHT22;9121;50.926;5.340;2023-10-13T11:14:42;23.20;99.90
17992;DHT22;9121;50.926;5.340;2023-10-13T11:17:19;23.10;99.90
17992;DHT22;9121;50.926;5.340;2023-10-13T11:19:52;23.10;99.90
17992;DHT22;9121;50.926;5.340;2023-10-13T11:22:21;23.10;99.90
17992;DHT22;9121;50.926;5.340;2023-10-13T11:25:00;23.00;99.90
17992;DHT22;9121;50.926;5.340;2023-10-13T11:27:34;23.00;99.90
17992;DHT22;9121;50.926;5.340;2023-10-13T11:30:22;23.10;99.90
17992;DHT22;9121;50.926;5.340;2023-10-13T11:32:59;23.10;99.90
17992;DHT22;9121;50.926;5.340;2023-10-13T11:35:28;23.20;99.90
17992;DHT22;9121;50.926;5.340;2023-10-13T11:38:14;23.30;99.90
17992;DHT22;9121;50.926;5.340;2023-10-13T11:40:51;23.50;99.90
17992;DHT22;9121;50.926;5.340;2023-10-13T11:43:34;23.70;99.90
17992;DHT22;9121;50.926;5.340;2023-10-13T11:46:14;23.80;99.90
17992;DHT22;9121;50.926;5.340;2023-10-13T11:48:43;23.90;99.90
17992;DHT22;9121;50.926;5.340;2023-10-13T11:51:11;24.00;99.90
17992;DHT22;9121;50.926;5.340;2023-10-13T11:53:43;24.00;99.90
17992;DHT22;9121;50.926;5.340;2023-10-13T11:56:11;23.90;99.90
17992;DHT22;9121;50.926;5.340;2023-10-13T11:58:39;23.80;99.90
17992;DHT22;9121;50.926;5.340;2023-10-13T12:01:06;23.70;99.90
17992;DHT22;9121;50.926;5.340;2023-10-13T12:03:46;23.50;99.90
17992;DHT22;9121;50.926;5.340;2023-10-13T12:06:34;23.40;99.90
17992;DHT22;9121;50.926;5.340;2023-10-13T12:09:12;23.40;99.90
17992;DHT22;9121;50.926;5.340;2023-10-13T12:12:01;23.40;99.90
17992;DHT22;9121;50.926;5.340;2023-10-13T12:14:30;23.40;99.90
17992;DHT22;9121;50.926;5.340;2023-10-13T12:17:03;23.40;99.90
17992;DHT22;9121;50.926;5.340;2023-10-13T12:19:36;23.50;99.90
17992;DHT22;9121;50.926;5.340;2023-10-13T12:22:05;23.70;99.90
17992;DHT22;9121;50.926;5.340;2023-10-13T12:24:35;23.80;99.90
17992;DHT22;9121;50.926;5.340;2023-10-13T12:27:08;24.00;99.90
17992;DHT22;9121;50.926;5.340;2023-10-13T12:29:46;24.30;99.90
17992;DHT22;9121;50.926;5.340;2023-10-13T12:32:13;24.90;99.90
17992;DHT22;9121;50.926;5.340;2023-10-13T12:34:40;25.40;99.90
17992;DHT22;9121;50.926;5.340;2023-10-13T12:37:28;25.60;99.90
17992;DHT22;9121;50.926;5.340;2023-10-13T12:40:16;25.80;99.90
17992;DHT22;9121;50.926;5.340;2023-10-13T12:43:01;26.30;99.90
17992;DHT22;9121;50.926;5.340;2023-10-13T12:45:57;26.40;99.90
17992;DHT22;9121;50.926;5.340;2023-10-13T12:48:53;25.90;99.90
17992;DHT22;9121;50.926;5.340;2023-10-13T12:51:30;25.30;99.90
17992;DHT22;9121;50.926;5.340;2023-10-13T12:54:17;24.90;99.90
17992;DHT22;9121;50.926;5.340;2023-10-13T12:56:49;24.60;99.90
17992;DHT22;9121;50.926;5.340;2023-10-13T12:59:22;24.30;99.90
17992;DHT22;9121;50.926;5.340;2023-10-13T13:01:52;24.10;99.90
17992;DHT22;9121;50.926;5.340;2023-10-13T13:04:19;24.00;99.90
17992;DHT22;9121;50.926;5.340;2023-10-13T13:06:46;23.90;99.90
17992;DHT22;9121;50.926;5.340;2023-10-13T13:09:14;23.80;99.90
17992;DHT22;9121;50.926;5.340;2023-10-13T13:11:42;23.70;99.90
17992;DHT22;9121;50.926;5.340;2023-10-13T13:14:09;23.70;99.90
17992;DHT22;9121;50.926;5.340;2023-10-13T13:16:36;23.60;99.90
17992;DHT22;9121;50.926;5.340;2023-10-13T13:19:05;23.50;99.90
17992;DHT22;9121;50.926;5.340;2023-10-13T13:21:37;23.60;99.90
17992;DHT22;9121;50.926;5.340;2023-10-13T13:24:05;23.50;99.90
17992;DHT22;9121;50.926;5.340;2023-10-13T13:26:37;23.50;99.90
17992;DHT22;9121;50.926;5.340;2023-10-13T13:29:07;23.40;99.90
17992;DHT22;9121;50.926;5.340;2023-10-13T13:31:36;23.40;99.90
17992;DHT22;9121;50.926;5.340;2023-10-13T13:34:07;23.30;99.90
17992;DHT22;9121;50.926;5.340;2023-10-13T13:36:36;23.30;99.90
17992;DHT22;9121;50.926;5.340;2023-10-13T13:39:03;23.30;99.90
17992;DHT22;9121;50.926;5.340;2023-10-13T13:41:31;23.20;99.90
17992;DHT22;9121;50.926;5.340;2023-10-13T13:43:59;23.20;99.90
17992;DHT22;9121;50.926;5.340;2023-10-13T13:46:40;23.10;99.90
17992;DHT22;9121;50.926;5.340;2023-10-13T13:49:10;23.10;99.90
17992;DHT22;9121;50.926;5.340;2023-10-13T13:51:44;23.10;99.90
17992;DHT22;9121;50.926;5.340;2023-10-13T13:54:18;23.10;99.90
17992;DHT22;9121;50.926;5.340;2023-10-13T13:56:45;23.10;99.90
17992;DHT22;9121;50.926;5.340;2023-10-13T13:59:12;23.10;99.90
17992;DHT22;9121;50.926;5.340;2023-10-13T14:01:43;23.10;99.90
17992;DHT22;9121;50.926;5.340;2023-10-13T14:04:10;23.00;99.90
17992;DHT22;9121;50.926;5.340;2023-10-13T14:06:42;23.00;99.90
17992;DHT22;9121;50.926;5.340;2023-10-13T14:09:11;22.90;99.90
17992;DHT22;9121;50.926;5.340;2023-10-13T14:11:42;22.90;99.90
17992;DHT22;9121;50.926;5.340;2023-10-13T14:14:27;22.90;99.90
17992;DHT22;9121;50.926;5.340;2023-10-13T14:17:00;22.90;99.90
17992;DHT22;9121;50.926;5.340;2023-10-13T14:19:33;22.90;99.90
17992;DHT22;9121;50.926;5.340;2023-10-13T14:22:01;22.90;99.90
17992;DHT22;9121;50.926;5.340;2023-10-13T14:24:32;22.80;99.90
17992;DHT22;9121;50.926;5.340;2023-10-13T14:27:02;22.80;99.90
17992;DHT22;9121;50.926;5.340;2023-10-13T14:29:35;22.80;99.90
17992;DHT22;9121;50.926;5.340;2023-10-13T14:32:07;22.90;99.90
17992;DHT22;9121;50.926;5.340;2023-10-13T14:34:39;22.80;99.90
17992;DHT22;9121;50.926;5.340;2023-10-13T14:37:06;22.70;99.90
17992;DHT22;9121;50.926;5.340;2023-10-13T14:39:34;22.70;99.90
17992;DHT22;9121;50.926;5.340;2023-10-13T14:42:03;22.80;99.90
17992;DHT22;9121;50.926;5.340;2023-10-13T14:44:32;22.80;99.90
17992;DHT22;9121;50.926;5.340;2023-10-13T14:46:59;22.70;99.90
17992;DHT22;9121;50.926;5.340;2023-10-13T14:49:27;22.70;99.90
17992;DHT22;9121;50.926;5.340;2023-10-13T14:51:54;22.70;99.90
17992;DHT22;9121;50.926;5.340;2023-10-13T14:54:22;22.60;99.90
17992;DHT22;9121;50.926;5.340;2023-10-13T14:57:02;22.60;99.90
17992;DHT22;9121;50.926;5.340;2023-10-13T14:59:29;22.60;99.90
17992;DHT22;9121;50.926;5.340;2023-10-13T15:02:00;22.60;99.90
17992;DHT22;9121;50.926;5.340;2023-10-13T15:04:29;22.60;99.90
17992;DHT22;9121;50.926;5.340;2023-10-13T15:06:58;22.60;99.90
17992;DHT22;9121;50.926;5.340;2023-10-13T15:09:28;22.50;99.90
17992;DHT22;9121;50.926;5.340;2023-10-13T15:11:55;22.50;99.90
17992;DHT22;9121;50.926;5.340;2023-10-13T15:14:21;22.50;99.90
17992;DHT22;9121;50.926;5.340;2023-10-13T15:16:49;22.40;99.90
17992;DHT22;9121;50.926;5.340;2023-10-13T15:19:18;22.40;99.90
17992;DHT22;9121;50.926;5.340;2023-10-13T15:21:46;22.40;99.90
17992;DHT22;9121;50.926;5.340;2023-10-13T15:24:16;22.30;99.90
17992;DHT22;9121;50.926;5.340;2023-10-13T15:26:43;22.30;99.90
17992;DHT22;9121;50.926;5.340;2023-10-13T15:29:14;22.30;99.90
17992;DHT22;9121;50.926;5.340;2023-10-13T15:31:42;22.20;99.90
17992;DHT22;9121;50.926;5.340;2023-10-13T15:34:20;22.20;99.90
17992;DHT22;9121;50.926;5.340;2023-10-13T15:36:50;22.10;99.90
17992;DHT22;9121;50.926;5.340;2023-10-13T15:39:20;22.10;99.90
17992;DHT22;9121;50.926;5.340;2023-10-13T15:41:51;22.10;99.90
17992;DHT22;9121;50.926;5.340;2023-10-13T15:44:19;22.10;99.90
17992;DHT22;9121;50.926;5.340;2023-10-13T15:46:53;22.10;99.90
17992;DHT22;9121;50.926;5.340;2023-10-13T15:49:21;22.00;99.90
17992;DHT22;9121;50.926;5.340;2023-10-13T15:51:49;22.00;99.90
17992;DHT22;9121;50.926;5.340;2023-10-13T15:54:17;22.00;99.90
17992;DHT22;9121;50.926;5.340;2023-10-13T15:56:44;21.90;99.90
17992;DHT22;9121;50.926;5.340;2023-10-13T15:59:12;21.90;99.90
17992;DHT22;9121;50.926;5.340;2023-10-13T16:01:39;21.70;99.90
17992;DHT22;9121;50.926;5.340;2023-10-13T16:04:06;21.40;99.90
17992;DHT22;9121;50.926;5.340;2023-10-13T16:06:38;21.30;99.90
17992;DHT22;9121;50.926;5.340;2023-10-13T16:09:06;21.30;99.90
17992;DHT22;9121;50.926;5.340;2023-10-13T16:11:40;21.30;99.90
17992;DHT22;9121;50.926;5.340;2023-10-13T16:14:08;21.20;99.90
17992;DHT22;9121;50.926;5.340;2023-10-13T16:16:41;21.10;99.90
17992;DHT22;9121;50.926;5.340;2023-10-13T16:19:10;21.00;99.90
17992;DHT22;9121;50.926;5.340;2023-10-13T16:21:37;20.90;99.90
17992;DHT22;9121;50.926;5.340;2023-10-13T16:24:07;20.80;99.90
17992;DHT22;9121;50.926;5.340;2023-10-13T16:26:36;20.70;99.90
17992;DHT22;9121;50.926;5.340;2023-10-13T16:29:06;20.60;99.90